sensor_id;sensor_type;location;lat;lon;timestamp;pressure;altitude;pressure_sealevel;temperature;humidity
71964;BME280;59834;52.124;5.422;2023-04-07T00:02:25;101514.16;;;7.70;100.00
71964;BME280;59834;52.124;5.422;2023-04-07T00:04:56;101518.44;;;7.71;100.00
71964;BME280;59834;52.124;5.422;2023-04-07T00:07:25;101520.22;;;7.70;100.00
71964;BME280;59834;52.124;5.422;2023-04-07T00:09:53;101517.69;;;7.69;100.00
71964;BME280;59834;52.124;5.422;2023-04-07T00:12:20;101514.28;;;7.67;100.00
71964;BME280;59834;52.124;5.422;2023-04-07T00:14:47;101513.34;;;7.68;100.00
71964;BME280;59834;52.124;5.422;2023-04-07T00:17:13;101518.72;;;7.65;100.00
71964;BME280;59834;52.124;5.422;2023-04-07T00:19:40;101514.47;;;7.62;100.00
71964;BME280;59834;52.124;5.422;2023-04-07T00:22:08;101521.44;;;7.62;100.00
71964;BME280;59834;52.124;5.422;2023-04-07T00:24:36;101521.56;;;7.59;100.00
71964;BME280;59834;52.124;5.422;2023-04-07T00:27:03;101516.34;;;7.59;100.00
71964;BME280;59834;52.124;5.422;2023-04-07T00:29:32;101520.72;;;7.58;100.00
71964;BME280;59834;52.124;5.422;2023-04-07T00:31:59;101520.72;;;7.58;100.00
71964;BME280;59834;52.124;5.422;2023-04-07T00:34:25;101521.59;;;7.57;100.00
71964;BME280;59834;52.124;5.422;2023-04-07T00:36:52;101526.78;;;7.59;100.00
71964;BME280;59834;52.124;5.422;2023-04-07T00:39:19;101519.84;;;7.57;100.00
71964;BME280;59834;52.124;5.422;2023-04-07T00:41:46;101519.09;;;7.55;100.00
71964;BME280;59834;52.124;5.422;2023-04-07T00:44:13;101523.44;;;7.55;100.00
71964;BME280;59834;52.124;5.422;2023-04-07T00:46:40;101519.13;;;7.54;100.00
71964;BME280;59834;52.124;5.422;2023-04-07T00:49:07;101519.13;;;7.54;100.00
71964;BME280;59834;52.124;5.422;2023-04-07T00:51:36;101518.34;;;7.52;100.00
71964;BME280;59834;52.124;5.422;2023-04-07T00:54:07;101527.94;;;7.51;100.00
71964;BME280;59834;52.124;5.422;2023-04-07T00:56:46;101520.97;;;7.52;100.00
71964;BME280;59834;52.124;5.422;2023-04-07T00:59:25;101520.13;;;7.51;100.00
71964;BME280;59834;52.124;5.422;2023-04-07T01:09:42;101530.59;;;7.50;100.00
71964;BME280;59834;52.124;5.422;2023-04-07T01:18:39;101527.25;;;7.46;100.00
71964;BME280;59834;52.124;5.422;2023-04-07T01:21:39;101529.06;;;7.44;100.00
71964;BME280;59834;52.124;5.422;2023-04-07T01:31:34;101531.53;;;7.47;100.00
71964;BME280;59834;52.124;5.422;2023-04-07T01:34:30;101533.25;;;7.48;100.00
71964;BME280;59834;52.124;5.422;2023-04-07T01:37:32;101539.34;;;7.47;100.00
71964;BME280;59834;52.124;5.422;2023-04-07T01:40:20;101528.94;;;7.47;100.00
71964;BME280;59834;52.124;5.422;2023-04-07T01:43:09;101528.16;;;7.45;100.00
71964;BME280;59834;52.124;5.422;2023-04-07T01:45:45;101531.53;;;7.47;100.00
71964;BME280;59834;52.124;5.422;2023-04-07T01:49:36;101527.25;;;7.46;100.00
71964;BME280;59834;52.124;5.422;2023-04-07T01:57:33;101525.56;;;7.45;100.00
71964;BME280;59834;52.124;5.422;2023-04-07T02:00:24;101520.34;;;7.45;100.00
71964;BME280;59834;52.124;5.422;2023-04-07T02:03:30;101522.88;;;7.47;100.00
71964;BME280;59834;52.124;5.422;2023-04-07T02:20:46;101525.50;;;7.47;100.00
71964;BME280;59834;52.124;5.422;2023-04-07T02:27:40;101535.91;;;7.47;100.00
71964;BME280;59834;52.124;5.422;2023-04-07T02:30:07;101534.16;;;7.47;100.00
71964;BME280;59834;52.124;5.422;2023-04-07T02:37:02;101535.06;;;7.46;100.00
71964;BME280;59834;52.124;5.422;2023-04-07T03:03:36;101535.97;;;7.45;100.00
71964;BME280;59834;52.124;5.422;2023-04-07T03:10:45;101539.34;;;7.47;100.00
71964;BME280;59834;52.124;5.422;2023-04-07T03:13:24;101539.44;;;7.46;100.00
71964;BME280;59834;52.124;5.422;2023-04-07T03:16:01;101549.78;;;7.47;100.00
71964;BME280;59834;52.124;5.422;2023-04-07T03:18:33;101544.69;;;7.44;100.00
71964;BME280;59834;52.124;5.422;2023-04-07T03:21:02;101547.28;;;7.44;100.00
71964;BME280;59834;52.124;5.422;2023-04-07T03:23:35;101541.19;;;7.45;100.00
71964;BME280;59834;52.124;5.422;2023-04-07T03:26:10;101535.13;;;7.45;100.00
71964;BME280;59834;52.124;5.422;2023-04-07T03:28:39;101538.59;;;7.45;100.00
71964;BME280;59834;52.124;5.422;2023-04-07T03:31:08;101540.34;;;7.45;100.00
71964;BME280;59834;52.124;5.422;2023-04-07T03:33:52;101537.78;;;7.43;100.00
71964;BME280;59834;52.124;5.422;2023-04-07T03:36:23;101549.06;;;7.44;100.00
71964;BME280;59834;52.124;5.422;2023-04-07T03:39:01;101556.81;;;7.45;100.00
71964;BME280;59834;52.124;5.422;2023-04-07T03:41:33;101548.09;;;7.46;100.00
71964;BME280;59834;52.124;5.422;2023-04-07T03:44:04;101552.47;;;7.46;100.00
71964;BME280;59834;52.124;5.422;2023-04-07T03:47:00;101554.22;;;7.45;100.00
71964;BME280;59834;52.124;5.422;2023-04-07T03:53:58;101549.91;;;7.44;100.00
71964;BME280;59834;52.124;5.422;2023-04-07T04:01:02;101546.53;;;7.42;100.00
71964;BME280;59834;52.124;5.422;2023-04-07T04:11:06;101552.56;;;7.43;100.00
71964;BME280;59834;52.124;5.422;2023-04-07T04:14:00;101552.56;;;7.43;100.00
71964;BME280;59834;52.124;5.422;2023-04-07T04:16:42;101549.13;;;7.42;100.00
71964;BME280;59834;52.124;5.422;2023-04-07T04:19:52;101555.25;;;7.41;100.00
71964;BME280;59834;52.124;5.422;2023-04-07T04:23:06;101551.72;;;7.42;100.00
71964;BME280;59834;52.124;5.422;2023-04-07T04:25:33;101558.75;;;7.40;100.00
71964;BME280;59834;52.124;5.422;2023-04-07T04:28:10;101560.50;;;7.40;100.00
71964;BME280;59834;52.124;5.422;2023-04-07T04:30:59;101567.41;;;7.41;100.00
71964;BME280;59834;52.124;5.422;2023-04-07T04:37:07;101566.50;;;7.42;100.00
71964;BME280;59834;52.124;5.422;2023-04-07T04:39:41;101572.56;;;7.42;100.00
71964;BME280;59834;52.124;5.422;2023-04-07T04:42:10;101576.84;;;7.43;100.00
71964;BME280;59834;52.124;5.422;2023-04-07T04:44:55;101582.91;;;7.44;100.00
71964;BME280;59834;52.124;5.422;2023-04-07T04:48:34;101583.81;;;7.43;100.00
71964;BME280;59834;52.124;5.422;2023-04-07T04:51:08;101587.34;;;7.42;100.00
71964;BME280;59834;52.124;5.422;2023-04-07T04:58:04;101593.41;;;7.42;100.00
71964;BME280;59834;52.124;5.422;2023-04-07T05:01:33;101598.63;;;7.42;100.00
71964;BME280;59834;52.124;5.422;2023-04-07T05:12:15;101598.63;;;7.42;100.00
71964;BME280;59834;52.124;5.422;2023-04-07T05:19:03;101603.75;;;7.44;100.00
71964;BME280;59834;52.124;5.422;2023-04-07T05:22:18;101604.59;;;7.44;100.00
71964;BME280;59834;52.124;5.422;2023-04-07T05:29:34;101606.25;;;7.47;100.00
71964;BME280;59834;52.124;5.422;2023-04-07T05:32:45;101608.06;;;7.45;100.00
71964;BME280;59834;52.124;5.422;2023-04-07T05:35:51;101608.13;;;7.43;100.00
71964;BME280;59834;52.124;5.422;2023-04-07T05:38:31;101614.25;;;7.42;100.00
71964;BME280;59834;52.124;5.422;2023-04-07T05:45:26;101612.56;;;7.41;100.00
71964;BME280;59834;52.124;5.422;2023-04-07T05:55:47;101614.25;;;7.42;100.00
71964;BME280;59834;52.124;5.422;2023-04-07T05:58:31;101620.28;;;7.43;100.00
71964;BME280;59834;52.124;5.422;2023-04-07T06:01:03;101622.06;;;7.42;100.00
71964;BME280;59834;52.124;5.422;2023-04-07T06:03:29;101625.56;;;7.41;100.00
71964;BME280;59834;52.124;5.422;2023-04-07T06:05:57;101633.31;;;7.43;100.00
71964;BME280;59834;52.124;5.422;2023-04-07T06:08:24;101628.03;;;7.44;100.00
71964;BME280;59834;52.124;5.422;2023-04-07T06:10:50;101641.00;;;7.46;100.00
71964;BME280;59834;52.124;5.422;2023-04-07T06:13:20;101641.97;;;7.43;100.00
71964;BME280;59834;52.124;5.422;2023-04-07T06:15:50;101645.38;;;7.45;100.00
71964;BME280;59834;52.124;5.422;2023-04-07T06:18:17;101641.00;;;7.46;100.00
71964;BME280;59834;52.124;5.422;2023-04-07T06:20:44;101638.34;;;7.47;100.00
71964;BME280;59834;52.124;5.422;2023-04-07T06:23:15;101644.34;;;7.49;100.00
71964;BME280;59834;52.124;5.422;2023-04-07T06:25:42;101636.44;;;7.52;100.00
71964;BME280;59834;52.124;5.422;2023-04-07T06:28:09;101646.78;;;7.54;100.00
71964;BME280;59834;52.124;5.422;2023-04-07T06:30:36;101650.97;;;7.58;100.00
71964;BME280;59834;52.124;5.422;2023-04-07T06:33:03;101651.88;;;7.57;100.00
71964;BME280;59834;52.124;5.422;2023-04-07T06:35:30;101656.31;;;7.55;100.00
71964;BME280;59834;52.124;5.422;2023-04-07T06:37:57;101656.34;;;7.53;100.00
71964;BME280;59834;52.124;5.422;2023-04-07T06:40:24;101655.47;;;7.54;100.00
71964;BME280;59834;52.124;5.422;2023-04-07T06:42:54;101652.72;;;7.57;100.00
71964;BME280;59834;52.124;5.422;2023-04-07T06:45:21;101653.53;;;7.60;100.00
71964;BME280;59834;52.124;5.422;2023-04-07T06:47:50;101649.84;;;7.65;100.00
71964;BME280;59834;52.124;5.422;2023-04-07T06:50:17;101665.25;;;7.71;100.00
71964;BME280;59834;52.124;5.422;2023-04-07T06:52:46;101660.66;;;7.78;100.00
71964;BME280;59834;52.124;5.422;2023-04-07T06:55:13;101669.97;;;7.84;100.00
71964;BME280;59834;52.124;5.422;2023-04-07T06:57:39;101668.88;;;7.89;100.00
71964;BME280;59834;52.124;5.422;2023-04-07T07:00:07;101676.47;;;7.95;100.00
71964;BME280;59834;52.124;5.422;2023-04-07T07:02:34;101666.78;;;7.99;100.00
71964;BME280;59834;52.124;5.422;2023-04-07T07:05:01;101673.63;;;8.01;100.00
71964;BME280;59834;52.124;5.422;2023-04-07T07:07:30;101676.25;;;8.01;100.00
71964;BME280;59834;52.124;5.422;2023-04-07T07:09:59;101676.25;;;8.01;100.00
71964;BME280;59834;52.124;5.422;2023-04-07T07:12:30;101677.81;;;8.06;100.00
71964;BME280;59834;52.124;5.422;2023-04-07T07:15:02;101682.59;;;8.16;100.00
71964;BME280;59834;52.124;5.422;2023-04-07T07:17:31;101678.63;;;8.28;100.00
71964;BME280;59834;52.124;5.422;2023-04-07T07:20:00;101678.25;;;8.37;100.00
71964;BME280;59834;52.124;5.422;2023-04-07T07:22:27;101680.94;;;8.36;100.00
71964;BME280;59834;52.124;5.422;2023-04-07T07:24:57;101683.59;;;8.34;100.00
71964;BME280;59834;52.124;5.422;2023-04-07T07:27:28;101691.28;;;8.39;100.00
71964;BME280;59834;52.124;5.422;2023-04-07T07:29:55;101693.31;;;8.31;100.00
71964;BME280;59834;52.124;5.422;2023-04-07T07:32:25;101696.72;;;8.33;100.00
71964;BME280;59834;52.124;5.422;2023-04-07T07:34:52;101694.84;;;8.36;100.00
71964;BME280;59834;52.124;5.422;2023-04-07T07:37:19;101703.63;;;8.34;100.00
71964;BME280;59834;52.124;5.422;2023-04-07T07:40:06;101701.22;;;8.29;100.00
71964;BME280;59834;52.124;5.422;2023-04-07T07:42:38;101704.78;;;8.26;100.00
71964;BME280;59834;52.124;5.422;2023-04-07T07:49:26;101709.03;;;8.29;100.00
71964;BME280;59834;52.124;5.422;2023-04-07T07:51:55;101706.47;;;8.27;100.00
71964;BME280;59834;52.124;5.422;2023-04-07T07:55:18;101706.13;;;8.37;100.00
71964;BME280;59834;52.124;5.422;2023-04-07T08:02:18;101710.34;;;8.61;100.00
71964;BME280;59834;52.124;5.422;2023-04-07T08:04:53;101725.75;;;8.67;100.00
71964;BME280;59834;52.124;5.422;2023-04-07T08:07:26;101725.88;;;8.64;100.00
71964;BME280;59834;52.124;5.422;2023-04-07T08:09:56;101728.44;;;8.66;100.00
71964;BME280;59834;52.124;5.422;2023-04-07T08:12:22;101722.31;;;8.67;100.00
71964;BME280;59834;52.124;5.422;2023-04-07T08:14:50;101726.34;;;8.74;100.00
71964;BME280;59834;52.124;5.422;2023-04-07T08:17:18;101729.22;;;8.88;100.00
71964;BME280;59834;52.124;5.422;2023-04-07T08:19:46;101729.66;;;9.00;100.00
71964;BME280;59834;52.124;5.422;2023-04-07T08:22:12;101739.38;;;8.96;100.00
71964;BME280;59834;52.124;5.422;2023-04-07T08:24:39;101726.09;;;9.01;100.00
71964;BME280;59834;52.124;5.422;2023-04-07T08:27:06;101738.13;;;9.05;100.00
71964;BME280;59834;52.124;5.422;2023-04-07T08:29:33;101739.13;;;9.02;100.00
71964;BME280;59834;52.124;5.422;2023-04-07T08:32:00;101738.38;;;8.98;99.24
71964;BME280;59834;52.124;5.422;2023-04-07T08:34:27;101740.09;;;9.00;99.01
71964;BME280;59834;52.124;5.422;2023-04-07T08:36:54;101741.41;;;9.10;99.28
71964;BME280;59834;52.124;5.422;2023-04-07T08:39:20;101748.03;;;9.17;98.48
71964;BME280;59834;52.124;5.422;2023-04-07T08:41:49;101753.13;;;9.20;97.55
71964;BME280;59834;52.124;5.422;2023-04-07T08:44:16;101744.00;;;9.30;95.78
71964;BME280;59834;52.124;5.422;2023-04-07T08:46:46;101740.28;;;9.36;95.85
71964;BME280;59834;52.124;5.422;2023-04-07T08:49:15;101749.09;;;9.52;96.09
71964;BME280;59834;52.124;5.422;2023-04-07T08:51:46;101746.47;;;9.73;95.32
71964;BME280;59834;52.124;5.422;2023-04-07T08:54:17;101749.94;;;9.73;94.75
71964;BME280;59834;52.124;5.422;2023-04-07T08:57:19;101756.44;;;9.83;94.82
71964;BME280;59834;52.124;5.422;2023-04-07T08:59:47;101756.63;;;9.79;92.13
71964;BME280;59834;52.124;5.422;2023-04-07T09:02:17;101761.22;;;9.74;92.59
71964;BME280;59834;52.124;5.422;2023-04-07T09:04:46;101763.13;;;9.70;92.17
71964;BME280;59834;52.124;5.422;2023-04-07T09:07:12;101770.25;;;9.66;92.84
71964;BME280;59834;52.124;5.422;2023-04-07T09:09:54;101773.72;;;9.67;92.40
71964;BME280;59834;52.124;5.422;2023-04-07T09:16:29;101770.88;;;9.53;91.10
71964;BME280;59834;52.124;5.422;2023-04-07T09:18:57;101778.16;;;9.65;91.17
71964;BME280;59834;52.124;5.422;2023-04-07T09:25:23;101770.22;;;9.87;91.97
71964;BME280;59834;52.124;5.422;2023-04-07T09:28:53;101776.06;;;9.92;91.26
71964;BME280;59834;52.124;5.422;2023-04-07T09:31:48;101779.69;;;9.89;91.22
71964;BME280;59834;52.124;5.422;2023-04-07T09:34:37;101777.88;;;9.71;91.05
71964;BME280;59834;52.124;5.422;2023-04-07T09:37:21;101778.94;;;9.67;91.54
71964;BME280;59834;52.124;5.422;2023-04-07T09:43:39;101782.31;;;9.69;91.04
71964;BME280;59834;52.124;5.422;2023-04-07T09:46:23;101780.78;;;9.65;91.22
71964;BME280;59834;52.124;5.422;2023-04-07T09:49:52;101783.59;;;9.60;91.39
71964;BME280;59834;52.124;5.422;2023-04-07T09:52:59;101788.47;;;9.68;90.51
71964;BME280;59834;52.124;5.422;2023-04-07T09:55:41;101787.28;;;9.75;90.86
71964;BME280;59834;52.124;5.422;2023-04-07T09:59:17;101787.63;;;9.67;90.96
71964;BME280;59834;52.124;5.422;2023-04-07T10:37:17;101816.22;;;9.52;89.50
71964;BME280;59834;52.124;5.422;2023-04-07T10:39:51;101820.59;;;9.51;89.27
71964;BME280;59834;52.124;5.422;2023-04-07T10:45:08;101817.94;;;9.53;89.25
71964;BME280;59834;52.124;5.422;2023-04-07T10:50:24;101829.81;;;9.60;88.47
71964;BME280;59834;52.124;5.422;2023-04-07T10:53:08;101825.34;;;9.62;88.86
71964;BME280;59834;52.124;5.422;2023-04-07T10:55:44;101830.66;;;9.60;88.18
71964;BME280;59834;52.124;5.422;2023-04-07T11:01:15;101831.56;;;9.59;88.54
71964;BME280;59834;52.124;5.422;2023-04-07T11:03:31;101828.03;;;9.60;88.57
71964;BME280;59834;52.124;5.422;2023-04-07T11:06:09;101832.47;;;9.58;88.70
71964;BME280;59834;52.124;5.422;2023-04-07T11:08:42;101836.72;;;9.61;89.58
71964;BME280;59834;52.124;5.422;2023-04-07T11:11:13;101833.47;;;9.56;89.76
71964;BME280;59834;52.124;5.422;2023-04-07T11:13:44;101832.00;;;9.49;88.85
71964;BME280;59834;52.124;5.422;2023-04-07T11:16:18;101835.81;;;9.41;89.35
71964;BME280;59834;52.124;5.422;2023-04-07T11:18:46;101838.50;;;9.40;90.15
71964;BME280;59834;52.124;5.422;2023-04-07T11:21:17;101838.50;;;9.40;90.06
71964;BME280;59834;52.124;5.422;2023-04-07T11:23:45;101847.81;;;9.45;90.03
71964;BME280;59834;52.124;5.422;2023-04-07T11:26:14;101844.06;;;9.53;89.78
71964;BME280;59834;52.124;5.422;2023-04-07T11:28:49;101844.56;;;9.61;89.79
71964;BME280;59834;52.124;5.422;2023-04-07T11:31:27;101848.47;;;9.71;88.87
71964;BME280;59834;52.124;5.422;2023-04-07T11:34:03;101850.16;;;9.72;88.56
71964;BME280;59834;52.124;5.422;2023-04-07T11:36:33;101860.38;;;9.78;89.09
71964;BME280;59834;52.124;5.422;2023-04-07T11:39:01;101850.75;;;9.79;88.51
71964;BME280;59834;52.124;5.422;2023-04-07T11:41:29;101853.44;;;9.77;88.33
71964;BME280;59834;52.124;5.422;2023-04-07T11:44:08;101855.22;;;9.77;88.24
71964;BME280;59834;52.124;5.422;2023-04-07T11:46:35;101851.88;;;9.73;87.91
71964;BME280;59834;52.124;5.422;2023-04-07T11:49:13;101853.84;;;9.68;88.00
71964;BME280;59834;52.124;5.422;2023-04-07T11:51:42;101853.97;;;9.65;87.76
71964;BME280;59834;52.124;5.422;2023-04-07T11:54:09;101854.03;;;9.63;88.08
71964;BME280;59834;52.124;5.422;2023-04-07T11:56:45;101855.69;;;9.66;87.75
71964;BME280;59834;52.124;5.422;2023-04-07T11:59:22;101861.75;;;9.66;87.95
71964;BME280;59834;52.124;5.422;2023-04-07T12:01:51;101863.91;;;9.77;88.09
71964;BME280;59834;52.124;5.422;2023-04-07T12:04:22;101862.94;;;9.80;86.85
71964;BME280;59834;52.124;5.422;2023-04-07T12:06:49;101872.72;;;9.75;87.51
71964;BME280;59834;52.124;5.422;2023-04-07T12:09:31;101868.53;;;9.71;86.93
71964;BME280;59834;52.124;5.422;2023-04-07T12:12:02;101878.16;;;9.70;87.51
71964;BME280;59834;52.124;5.422;2023-04-07T12:14:29;101882.13;;;9.79;86.39
71964;BME280;59834;52.124;5.422;2023-04-07T12:16:55;101884.81;;;9.77;86.20
71964;BME280;59834;52.124;5.422;2023-04-07T12:19:25;101884.09;;;9.74;86.08
71964;BME280;59834;52.124;5.422;2023-04-07T12:21:54;101887.34;;;9.79;86.10
71964;BME280;59834;52.124;5.422;2023-04-07T12:24:20;101882.56;;;9.88;86.03
71964;BME280;59834;52.124;5.422;2023-04-07T12:26:47;101882.44;;;9.91;85.54
71964;BME280;59834;52.124;5.422;2023-04-07T12:29:15;101884.00;;;9.96;86.59
71964;BME280;59834;52.124;5.422;2023-04-07T12:31:42;101890.03;;;9.98;85.76
71964;BME280;59834;52.124;5.422;2023-04-07T12:34:09;101893.47;;;9.98;86.01
71964;BME280;59834;52.124;5.422;2023-04-07T12:36:36;101895.00;;;10.04;85.24
71964;BME280;59834;52.124;5.422;2023-04-07T12:39:03;101893.56;;;10.15;85.17
71964;BME280;59834;52.124;5.422;2023-04-07T12:41:29;101900.31;;;10.21;85.35
71964;BME280;59834;52.124;5.422;2023-04-07T12:43:56;101895.06;;;10.21;83.53
71964;BME280;59834;52.124;5.422;2023-04-07T12:46:23;101895.88;;;10.23;84.28
71964;BME280;59834;52.124;5.422;2023-04-07T12:48:50;101900.44;;;10.18;83.79
71964;BME280;59834;52.124;5.422;2023-04-07T12:51:17;101900.59;;;10.15;83.58
71964;BME280;59834;52.124;5.422;2023-04-07T12:53:43;101900.72;;;10.12;83.29
71964;BME280;59834;52.124;5.422;2023-04-07T12:56:10;101897.97;;;10.15;83.32
71964;BME280;59834;52.124;5.422;2023-04-07T12:58:39;101908.38;;;10.17;83.46
71964;BME280;59834;52.124;5.422;2023-04-07T13:01:06;101906.88;;;10.11;83.33
71964;BME280;59834;52.124;5.422;2023-04-07T13:03:33;101912.03;;;10.12;83.07
71964;BME280;59834;52.124;5.422;2023-04-07T13:06:00;101912.69;;;10.18;84.21
71964;BME280;59834;52.124;5.422;2023-04-07T13:08:27;101917.84;;;10.19;84.16
71964;BME280;59834;52.124;5.422;2023-04-07T13:10:55;101913.59;;;10.17;83.20
71964;BME280;59834;52.124;5.422;2023-04-07T13:13:22;101916.41;;;10.12;83.10
71964;BME280;59834;52.124;5.422;2023-04-07T13:15:49;101918.25;;;10.10;82.93
71964;BME280;59834;52.124;5.422;2023-04-07T13:18:15;101915.69;;;10.08;83.33
71964;BME280;59834;52.124;5.422;2023-04-07T13:20:42;101917.56;;;10.06;83.46
71964;BME280;59834;52.124;5.422;2023-04-07T13:23:16;101914.97;;;10.05;83.94
71964;BME280;59834;52.124;5.422;2023-04-07T13:25:44;101925.56;;;10.02;83.98
71964;BME280;59834;52.124;5.422;2023-04-07T13:28:10;101925.84;;;9.96;83.59
71964;BME280;59834;52.124;5.422;2023-04-07T13:30:38;101926.78;;;9.95;84.36
71964;BME280;59834;52.124;5.422;2023-04-07T13:33:04;101925.84;;;9.96;83.65
71964;BME280;59834;52.124;5.422;2023-04-07T13:35:31;101922.34;;;9.97;84.41
71964;BME280;59834;52.124;5.422;2023-04-07T13:38:02;101929.13;;;10.01;83.67
71964;BME280;59834;52.124;5.422;2023-04-07T13:40:29;101927.47;;;9.98;84.59
71964;BME280;59834;52.124;5.422;2023-04-07T13:42:56;101923.38;;;9.93;84.58
71964;BME280;59834;52.124;5.422;2023-04-07T13:45:23;101925.13;;;9.92;84.79
71964;BME280;59834;52.124;5.422;2023-04-07T13:47:50;101928.53;;;9.94;84.31
71964;BME280;59834;52.124;5.422;2023-04-07T13:50:16;101925.91;;;9.94;84.48
71964;BME280;59834;52.124;5.422;2023-04-07T13:52:43;101926.97;;;9.90;84.47
71964;BME280;59834;52.124;5.422;2023-04-07T13:55:09;101933.06;;;9.90;84.76
71964;BME280;59834;52.124;5.422;2023-04-07T13:57:36;101931.38;;;9.89;84.61
71964;BME280;59834;52.124;5.422;2023-04-07T14:00:02;101932.25;;;9.88;84.44
71964;BME280;59834;52.124;5.422;2023-04-07T14:02:29;101930.44;;;9.90;84.69
71964;BME280;59834;52.124;5.422;2023-04-07T14:04:57;101929.97;;;10.01;85.18
71964;BME280;59834;52.124;5.422;2023-04-07T14:07:24;101933.81;;;10.13;85.31
71964;BME280;59834;52.124;5.422;2023-04-07T14:09:51;101929.22;;;10.18;84.45
71964;BME280;59834;52.124;5.422;2023-04-07T14:12:19;101930.78;;;10.22;83.84
71964;BME280;59834;52.124;5.422;2023-04-07T14:14:48;101930.66;;;10.25;83.84
71964;BME280;59834;52.124;5.422;2023-04-07T14:17:20;101934.84;;;10.29;83.82
71964;BME280;59834;52.124;5.422;2023-04-07T14:19:46;101934.31;;;10.21;84.06
71964;BME280;59834;52.124;5.422;2023-04-07T14:22:13;101931.63;;;10.23;83.91
71964;BME280;59834;52.124;5.422;2023-04-07T14:24:41;101942.03;;;10.24;84.38
71964;BME280;59834;52.124;5.422;2023-04-07T14:27:08;101934.09;;;10.27;83.43
71964;BME280;59834;52.124;5.422;2023-04-07T14:29:34;101939.06;;;10.33;84.05
71964;BME280;59834;52.124;5.422;2023-04-07T14:32:01;101942.94;;;10.44;83.45
71964;BME280;59834;52.124;5.422;2023-04-07T14:34:27;101940.25;;;10.45;83.23
71964;BME280;59834;52.124;5.422;2023-04-07T14:36:55;101935.84;;;10.46;83.25
71964;BME280;59834;52.124;5.422;2023-04-07T14:39:22;101936.00;;;10.43;83.71
71964;BME280;59834;52.124;5.422;2023-04-07T14:41:50;101938.69;;;10.41;84.47
71964;BME280;59834;52.124;5.422;2023-04-07T14:44:17;101938.91;;;10.36;84.16
71964;BME280;59834;52.124;5.422;2023-04-07T14:46:44;101942.03;;;10.24;85.10
71964;BME280;59834;52.124;5.422;2023-04-07T14:49:12;101938.63;;;10.22;85.25
71964;BME280;59834;52.124;5.422;2023-04-07T14:51:38;101949.41;;;10.16;84.84
71964;BME280;59834;52.124;5.422;2023-04-07T14:54:05;101945.44;;;10.06;85.00
71964;BME280;59834;52.124;5.422;2023-04-07T14:56:33;101946.75;;;9.96;85.46
71964;BME280;59834;52.124;5.422;2023-04-07T14:58:59;101954.91;;;9.89;85.67
71964;BME280;59834;52.124;5.422;2023-04-07T15:01:26;101946.06;;;9.92;85.90
71964;BME280;59834;52.124;5.422;2023-04-07T15:03:53;101958.50;;;9.87;85.76
71964;BME280;59834;52.124;5.422;2023-04-07T15:06:20;101957.78;;;9.83;85.70
71964;BME280;59834;52.124;5.422;2023-04-07T15:08:47;101959.59;;;9.81;86.45
71964;BME280;59834;52.124;5.422;2023-04-07T15:11:14;101963.03;;;9.82;86.90
71964;BME280;59834;52.124;5.422;2023-04-07T15:13:40;101966.66;;;9.79;86.90
71964;BME280;59834;52.124;5.422;2023-04-07T15:16:09;101969.19;;;9.81;87.48
71964;BME280;59834;52.124;5.422;2023-04-07T15:18:37;101964.91;;;9.80;87.25
71964;BME280;59834;52.124;5.422;2023-04-07T15:21:07;101971.03;;;9.79;87.65
71964;BME280;59834;52.124;5.422;2023-04-07T15:23:37;101972.91;;;9.75;87.46
71964;BME280;59834;52.124;5.422;2023-04-07T15:26:04;101974.81;;;9.72;87.08
71964;BME280;59834;52.124;5.422;2023-04-07T15:28:31;101972.78;;;9.58;87.37
71964;BME280;59834;52.124;5.422;2023-04-07T15:30:59;101970.34;;;9.53;88.30
71964;BME280;59834;52.124;5.422;2023-04-07T15:33:26;101973.94;;;9.51;88.49
71964;BME280;59834;52.124;5.422;2023-04-07T15:35:53;101976.78;;;9.44;89.27
71964;BME280;59834;52.124;5.422;2023-04-07T15:38:19;101976.91;;;9.41;90.14
71964;BME280;59834;52.124;5.422;2023-04-07T15:40:46;101981.25;;;9.42;90.40
71964;BME280;59834;52.124;5.422;2023-04-07T15:43:12;101987.25;;;9.44;90.40
71964;BME280;59834;52.124;5.422;2023-04-07T15:45:41;101987.25;;;9.44;90.31
71964;BME280;59834;52.124;5.422;2023-04-07T15:48:09;101980.38;;;9.42;91.30
71964;BME280;59834;52.124;5.422;2023-04-07T15:50:36;101987.50;;;9.38;92.00
71964;BME280;59834;52.124;5.422;2023-04-07T15:53:04;101985.56;;;9.43;92.72
71964;BME280;59834;52.124;5.422;2023-04-07T15:55:32;101990.53;;;9.50;92.73
71964;BME280;59834;52.124;5.422;2023-04-07T15:57:59;101996.50;;;9.53;92.69
71964;BME280;59834;52.124;5.422;2023-04-07T16:00:28;101984.31;;;9.52;93.01
71964;BME280;59834;52.124;5.422;2023-04-07T16:02:55;101994.78;;;9.52;93.83
71964;BME280;59834;52.124;5.422;2023-04-07T16:05:22;101997.38;;;9.52;94.06
71964;BME280;59834;52.124;5.422;2023-04-07T16:07:49;102001.75;;;9.52;94.10
71964;BME280;59834;52.124;5.422;2023-04-07T16:10:15;102001.88;;;9.49;94.83
71964;BME280;59834;52.124;5.422;2023-04-07T16:12:45;102003.97;;;9.40;94.80
71964;BME280;59834;52.124;5.422;2023-04-07T16:15:12;102000.03;;;9.30;95.28
71964;BME280;59834;52.124;5.422;2023-04-07T16:17:47;102004.56;;;9.25;96.94
71964;BME280;59834;52.124;5.422;2023-04-07T16:20:14;101996.84;;;9.22;97.28
71964;BME280;59834;52.124;5.422;2023-04-07T16:22:47;102008.34;;;9.18;97.27
71964;BME280;59834;52.124;5.422;2023-04-07T16:25:14;102005.69;;;9.19;97.70
71964;BME280;59834;52.124;5.422;2023-04-07T16:27:42;102009.03;;;9.23;98.00
71964;BME280;59834;52.124;5.422;2023-04-07T16:30:11;102008.91;;;9.26;98.21
71964;BME280;59834;52.124;5.422;2023-04-07T16:32:40;102013.28;;;9.26;97.98
71964;BME280;59834;52.124;5.422;2023-04-07T16:35:09;102015.81;;;9.27;97.98
71964;BME280;59834;52.124;5.422;2023-04-07T16:37:37;102015.69;;;9.30;98.30
71964;BME280;59834;52.124;5.422;2023-04-07T16:40:04;102019.34;;;9.26;98.87
71964;BME280;59834;52.124;5.422;2023-04-07T16:42:31;102020.31;;;9.24;98.91